Cambridge, Kansas
Current Conditions -  °F | °C
As of 5:54 PM on Saturday 20 Dec 2014 (Local Time) from KWLD Reporting Station
Overcast Overcast  
Wind Chill: 39°   Ceiling: 2500
Heat Index: 44°   Visibility: 10mi
Dew Point: 36°   Wind: 9mph
Humidity: 73%   Direction: 200°SSW
Pressure: 30.14"   Gusts: NA
Location:  37.32°N, 96.66°W
Report Text: KWLD 202354Z AUTO 20008KT 10SM OVC025 07/02 A3014 RMK AO2 SLP210 T00670022 10100 20067 53001
Loading
Personal Weather Stations






























Interactive Weather Map New forecast layout! Learn more

10-Day Weather Forecast

Advertisements
Track Severe Weather on mobile